Time;durP1;ratioP1;P1;durP2;ratioP2;P2;SDS_P1;SDS_P2;PMS_P1;PMS_P2;Temp;Humidity;BMP_temperature;BMP_pressure;BME280_temperature;BME280_humidity;BME280_pressure;Samples;Min_cycle;Max_cycle;Signal;HPM_P1;HPM_P2
2021/04/20 00:00:41;;;;;;;61.33;40.50;;;;;;;4.40;82.99;96298.72;1742862;80;21090;-79
2021/04/20 00:03:09;;;;;;;66.40;41.37;;;;;;;4.39;82.98;96303.05;1722063;82;21324;-79
2021/04/20 00:05:35;;;;;;;61.37;38.35;;;;;;;4.36;82.94;96296.08;1748478;80;21071;-79
2021/04/20 00:08:01;;;;;;;58.33;39.05;;;;;;;4.36;82.95;96303.80;1755622;80;21157;-79
2021/04/20 00:10:27;;;;;;;58.02;37.80;;;;;;;4.36;82.88;96303.31;1688643;84;21404;-79
2021/04/20 00:12:53;;;;;;;55.15;37.70;;;;;;;4.36;82.92;96299.94;1701135;83;22091;-79
2021/04/20 00:15:23;;;;;;;53.08;35.30;;;;;;;4.36;82.93;96301.22;1688252;83;22376;-80
2021/04/20 00:17:57;;;;;;;55.48;36.48;;;;;;;4.37;83.01;96303.64;1702253;83;21141;-80
2021/04/20 00:20:23;;;;;;;56.75;37.20;;;;;;;4.37;83.06;96301.07;1699933;83;21122;-80
2021/04/20 00:22:49;;;;;;;59.23;36.42;;;;;;;4.37;83.15;96302.84;1694259;83;21152;-80
2021/04/20 00:25:16;;;;;;;54.10;35.45;;;;;;;4.38;83.22;96302.69;1709054;83;21152;-80
2021/04/20 00:27:42;;;;;;;50.92;34.08;;;;;;;4.39;83.19;96299.19;1706526;83;21106;-80
2021/04/20 00:30:09;;;;;;;45.78;28.47;;;;;;;4.41;83.12;96301.14;1684855;84;21138;-80
2021/04/20 00:32:35;;;;;;;39.73;27.05;;;;;;;4.42;83.07;96297.61;1697816;83;21139;-80
2021/04/20 00:35:02;;;;;;;36.25;25.45;;;;;;;4.42;82.97;96295.52;1700757;83;21113;-80
2021/04/20 00:37:28;;;;;;;33.98;22.35;;;;;;;4.40;82.90;96296.14;1704916;83;21170;-80
2021/04/20 00:39:54;;;;;;;31.33;21.90;;;;;;;4.37;82.87;96300.27;1695747;83;21126;-80
2021/04/20 00:42:20;;;;;;;29.30;20.45;;;;;;;4.33;82.77;96297.18;1691508;83;21360;-80
2021/04/20 00:44:47;;;;;;;31.55;21.02;;;;;;;4.32;82.71;96290.42;1687104;83;21121;-80
2021/04/20 00:47:13;;;;;;;33.48;24.20;;;;;;;4.34;82.70;96291.56;1682184;83;21127;-80
2021/04/20 00:49:39;;;;;;;34.25;24.82;;;;;;;4.35;82.76;96290.60;1691524;83;21166;-80
2021/04/20 00:52:05;;;;;;;39.55;26.55;;;;;;;4.38;82.78;96286.45;1691030;83;21135;-80
2021/04/20 00:54:31;;;;;;;40.95;27.52;;;;;;;4.38;82.89;96287.25;1702441;83;21476;-79
2021/04/20 00:56:57;;;;;;;38.17;25.62;;;;;;;4.40;83.15;96285.85;1696499;83;21369;-80
2021/04/20 00:59:23;;;;;;;35.08;24.00;;;;;;;4.38;82.93;96283.88;1702476;83;21390;-80
2021/04/20 01:01:49;;;;;;;32.70;22.90;;;;;;;4.36;82.91;96280.16;1694170;83;21104;-80
2021/04/20 01:04:17;;;;;;;31.73;23.12;;;;;;;4.36;82.87;96272.45;1691121;83;21267;-80
2021/04/20 01:06:47;;;;;;;26.07;19.90;;;;;;;4.36;82.68;96275.50;1686922;84;21122;-80
2021/04/20 01:09:17;;;;;;;25.95;18.85;;;;;;;4.34;82.64;96273.55;1694036;83;21598;-80
2021/04/20 01:11:43;;;;;;;21.97;16.32;;;;;;;4.30;82.55;96274.80;1692425;83;21110;-78
2021/04/20 01:14:09;;;;;;;16.45;13.75;;;;;;;4.23;82.40;96278.45;1753095;81;21344;-78
2021/04/20 01:16:36;;;;;;;21.25;15.28;;;;;;;4.15;82.52;96275.30;1736935;81;21264;-78
2021/04/20 01:19:05;;;;;;;23.10;15.93;;;;;;;4.10;82.51;96276.69;1757579;81;21119;-78
2021/04/20 01:21:31;;;;;;;19.32;13.55;;;;;;;4.07;82.50;96282.94;1742535;81;21115;-78
2021/04/20 01:24:11;;;;;;;18.60;14.28;;;;;;;4.06;82.47;96281.28;1753554;81;21340;-78
2021/04/20 01:26:42;;;;;;;18.40;13.38;;;;;;;4.05;82.35;96273.72;1745691;81;21142;-78
2021/04/20 01:29:08;;;;;;;17.20;13.95;;;;;;;4.03;82.26;96277.72;1750925;81;21216;-77
2021/04/20 01:31:37;;;;;;;14.63;12.58;;;;;;;4.00;82.24;96275.44;1741999;81;21140;-78
2021/04/20 01:34:03;;;;;;;18.23;13.40;;;;;;;3.96;82.26;96276.69;1744181;81;21089;-77
2021/04/20 01:36:29;;;;;;;19.35;14.20;;;;;;;3.91;82.31;96275.03;1740164;81;21218;-79
2021/04/20 01:38:57;;;;;;;19.30;14.55;;;;;;;3.86;82.35;96273.34;1754619;80;21958;-79
2021/04/20 01:41:25;;;;;;;17.55;13.60;;;;;;;3.81;82.34;96271.69;1752975;80;21094;-79
2021/04/20 01:43:53;;;;;;;14.95;11.60;;;;;;;3.76;82.35;96270.84;1748456;80;21308;-79
2021/04/20 01:46:19;;;;;;;13.70;11.48;;;;;;;3.73;82.30;96269.81;1770244;80;21240;-79
2021/04/20 01:48:46;;;;;;;19.32;12.20;;;;;;;3.72;82.33;96276.38;1761977;80;21117;-79
2021/04/20 01:51:13;;;;;;;18.12;14.28;;;;;;;3.71;82.40;96278.62;1754598;80;21250;-79
2021/04/20 01:53:39;;;;;;;16.82;13.83;;;;;;;3.69;82.54;96270.25;1768097;80;21113;-79
2021/04/20 01:56:08;;;;;;;19.70;14.03;;;;;;;3.65;82.54;96275.34;1762606;80;21221;-79
2021/04/20 01:58:36;;;;;;;17.02;12.98;;;;;;;3.64;82.73;96280.15;1768990;80;21105;-79
2021/04/20 02:01:13;;;;;;;16.97;12.40;;;;;;;3.63;82.70;96275.96;1763346;80;21269;-79
2021/04/20 02:03:39;;;;;;;17.80;12.85;;;;;;;3.63;82.70;96284.95;1758486;80;21137;-79
2021/04/20 02:06:08;;;;;;;18.48;12.55;;;;;;;3.64;82.74;96286.57;1753578;80;21454;-79
2021/04/20 02:08:34;;;;;;;18.20;13.70;;;;;;;3.66;82.77;96285.95;1765484;80;21127;-79
2021/04/20 02:11:03;;;;;;;17.85;13.62;;;;;;;3.67;82.99;96284.52;1758135;80;21240;-77
2021/04/20 02:13:29;;;;;;;19.27;14.20;;;;;;;3.68;83.05;96279.72;1754493;80;21134;-77
2021/04/20 02:15:55;;;;;;;18.90;14.00;;;;;;;3.68;83.13;96283.57;1758620;80;21181;-77
2021/04/20 02:18:24;;;;;;;17.98;13.72;;;;;;;3.68;83.16;96283.57;1766019;80;21154;-80
2021/04/20 02:20:50;;;;;;;19.05;14.20;;;;;;;3.70;83.17;96285.52;1762902;80;21102;-80
2021/04/20 02:23:16;;;;;;;17.85;13.55;;;;;;;3.72;83.09;96281.05;1767899;80;21150;-80
2021/04/20 02:25:44;;;;;;;17.92;13.58;;;;;;;3.77;83.04;96288.35;1764111;80;21350;-78
2021/04/20 02:28:11;;;;;;;17.50;13.35;;;;;;;3.79;83.04;96280.02;1761973;80;21312;-77
2021/04/20 02:30:37;;;;;;;19.45;15.03;;;;;;;3.81;83.03;96283.25;1757597;80;21118;-77
2021/04/20 02:33:04;;;;;;;20.82;15.83;;;;;;;3.81;83.01;96280.69;1774913;80;21149;-77
2021/04/20 02:35:32;;;;;;;22.40;18.27;;;;;;;3.78;83.04;96270.69;1763248;80;21332;-77
2021/04/20 02:37:58;;;;;;;22.85;17.12;;;;;;;3.76;83.15;96276.45;1755579;80;21220;-77
2021/04/20 02:40:30;;;;;;;22.20;16.25;;;;;;;3.77;83.19;96281.92;1754566;80;21142;-77
2021/04/20 02:42:56;;;;;;;20.25;15.08;;;;;;;3.77;83.11;96285.30;1748187;80;21158;-77
2021/04/20 02:45:25;;;;;;;16.57;12.95;;;;;;;3.77;83.11;96285.30;1745849;80;21142;-77
2021/04/20 02:47:52;;;;;;;18.73;13.72;;;;;;;3.80;83.16;96283.73;1755688;80;21269;-79
2021/04/20 02:50:21;;;;;;;18.65;13.28;;;;;;;3.79;83.22;96283.40;1760385;80;21126;-79
2021/04/20 02:52:49;;;;;;;18.95;15.03;;;;;;;3.79;83.33;96281.30;1746659;80;21245;-79
2021/04/20 02:55:16;;;;;;;21.05;15.48;;;;;;;3.81;83.52;96274.26;1686616;84;21486;-79
2021/04/20 02:57:44;;;;;;;16.52;11.88;;;;;;;3.83;83.59;96273.16;1751536;80;21474;-79
2021/04/20 03:00:13;;;;;;;15.65;12.05;;;;;;;3.86;83.32;96274.63;1774973;80;21257;-79
2021/04/20 03:02:39;;;;;;;16.40;12.37;;;;;;;3.87;83.32;96275.77;1748403;80;21141;-79
2021/04/20 03:05:09;;;;;;;19.73;14.78;;;;;;;3.90;83.37;96269.53;1757052;80;21109;-79
2021/04/20 03:07:35;;;;;;;21.25;14.90;;;;;;;3.91;83.42;96268.61;1756964;80;21118;-79
2021/04/20 03:10:03;;;;;;;23.57;16.12;;;;;;;3.91;83.46;96272.46;1761962;80;21095;-79
2021/04/20 03:12:29;;;;;;;21.27;14.20;;;;;;;3.90;83.43;96274.23;1753688;80;21124;-80
2021/04/20 03:14:56;;;;;;;19.15;14.85;;;;;;;3.95;83.52;96275.55;1761234;80;21402;-77
2021/04/20 03:17:21;;;;;;;23.90;15.20;;;;;;;3.97;83.44;96271.88;1748927;80;21325;-77
2021/04/20 03:19:48;;;;;;;20.30;15.35;;;;;;;4.00;83.52;96270.78;1770402;80;21544;-77
2021/04/20 03:22:14;;;;;;;18.92;14.53;;;;;;;4.03;83.63;96270.01;1736306;80;21105;-78
2021/04/20 03:24:54;;;;;;;20.15;15.15;;;;;;;4.08;83.75;96265.27;1758436;80;21347;-78
2021/04/20 03:27:20;;;;;;;26.15;17.40;;;;;;;4.08;83.75;96265.27;1747746;80;21103;-78
2021/04/20 03:29:47;;;;;;;20.82;16.32;;;;;;;4.07;83.58;96262.84;1745654;80;21073;-79
2021/04/20 03:32:13;;;;;;;24.40;17.27;;;;;;;4.10;83.66;96261.26;1713209;80;21360;-79
2021/04/20 03:34:59;;;;;;;21.68;16.35;;;;;;;4.13;83.60;96266.11;1751688;80;21139;-79
2021/04/20 03:37:48;;;;;;;21.15;15.60;;;;;;;4.18;83.47;96263.91;1751849;80;21329;-77
2021/04/20 03:40:14;;;;;;;24.40;18.48;;;;;;;4.19;83.51;96261.66;1741134;80;21193;-77
2021/04/20 03:42:45;;;;;;;24.10;18.82;;;;;;;4.20;83.56;96265.38;1763618;80;21430;-77
2021/04/20 03:45:32;;;;;;;27.37;18.95;;;;;;;4.18;83.48;96258.76;1733701;80;21655;-77
2021/04/20 03:48:04;;;;;;;23.02;17.67;;;;;;;4.18;83.49;96267.28;1768034;80;21118;-77
2021/04/20 03:50:33;;;;;;;22.75;15.95;;;;;;;4.17;83.38;96275.14;1754679;80;21067;-77
2021/04/20 03:53:04;;;;;;;23.12;16.93;;;;;;;4.20;83.39;96265.85;1754298;80;21130;-77
2021/04/20 03:55:31;;;;;;;25.60;18.35;;;;;;;4.24;83.53;96266.39;1766686;80;21098;-77
2021/04/20 03:57:57;;;;;;;22.40;15.63;;;;;;;4.32;83.68;96267.75;1761761;80;21152;-77
2021/04/20 04:00:23;;;;;;;25.08;16.87;;;;;;;4.33;83.55;96271.94;1766574;80;21098;-77
2021/04/20 04:02:52;;;;;;;23.87;17.45;;;;;;;4.34;83.73;96274.84;1764831;80;21231;-77
2021/04/20 04:05:22;;;;;;;24.90;18.70;;;;;;;4.37;83.69;96269.39;1762070;80;21316;-78
2021/04/20 04:07:51;;;;;;;25.72;18.52;;;;;;;4.42;83.70;96271.08;1749869;80;21163;-78
2021/04/20 04:10:18;;;;;;;22.85;17.00;;;;;;;4.46;83.49;96273.68;1762821;80;21110;-78
2021/04/20 04:12:44;;;;;;;25.23;17.70;;;;;;;4.48;83.36;96273.86;1768947;80;21112;-78
2021/04/20 04:15:11;;;;;;;24.27;18.42;;;;;;;4.49;83.31;96272.09;1754161;80;21227;-78
2021/04/20 04:17:39;;;;;;;25.12;19.77;;;;;;;4.49;83.34;96271.62;1757431;80;21097;-79
2021/04/20 04:20:07;;;;;;;22.60;16.75;;;;;;;4.45;83.27;96274.64;1766600;80;21458;-80
2021/04/20 04:22:37;;;;;;;17.98;13.20;;;;;;;4.41;83.27;96275.89;1770107;80;21122;-80
2021/04/20 04:25:06;;;;;;;23.35;15.10;;;;;;;4.42;83.28;96272.36;1776379;80;21102;-80
2021/04/20 04:27:38;;;;;;;22.52;17.15;;;;;;;4.43;83.25;96278.64;1752462;80;21110;-80
2021/04/20 04:30:09;;;;;;;25.52;17.35;;;;;;;4.47;83.24;96276.58;1768706;80;21130;-80
2021/04/20 04:32:36;;;;;;;27.05;20.40;;;;;;;4.49;83.42;96278.05;1757041;80;21252;-78
2021/04/20 04:35:04;;;;;;;27.73;19.50;;;;;;;4.52;83.37;96282.09;1761061;80;21063;-78
2021/04/20 04:37:31;;;;;;;31.00;20.43;;;;;;;4.51;83.30;96276.61;1754872;80;21118;-78
2021/04/20 04:39:58;;;;;;;28.75;20.37;;;;;;;4.51;83.35;96279.99;1744779;80;21122;-78
2021/04/20 04:42:24;;;;;;;27.35;20.88;;;;;;;4.53;83.37;96281.94;1749880;80;21229;-78
2021/04/20 04:44:50;;;;;;;29.70;20.88;;;;;;;4.56;83.30;96277.48;1758965;80;21256;-78
2021/04/20 04:47:16;;;;;;;29.25;21.48;;;;;;;4.61;83.31;96276.55;1754364;80;21256;-78
2021/04/20 04:49:42;;;;;;;27.35;19.95;;;;;;;4.64;83.36;96276.25;1766100;80;21252;-78
2021/04/20 04:52:08;;;;;;;28.15;21.00;;;;;;;4.67;83.45;96279.34;1754566;80;21099;-75
2021/04/20 04:54:34;;;;;;;30.75;22.05;;;;;;;4.68;83.48;96278.86;1759298;80;21122;-75
2021/04/20 04:57:01;;;;;;;31.65;22.73;;;;;;;4.70;83.54;96281.61;1754813;80;21211;-76
2021/04/20 04:59:27;;;;;;;27.80;20.90;;;;;;;4.75;83.55;96278.61;1763052;80;21279;-75
2021/04/20 05:01:54;;;;;;;28.27;20.08;;;;;;;4.80;83.47;96277.20;1745406;80;21948;-77
2021/04/20 05:04:24;;;;;;;23.60;18.52;;;;;;;4.82;83.50;96275.28;1758190;80;21083;-78
2021/04/20 05:06:51;;;;;;;25.23;19.75;;;;;;;4.93;83.55;96278.59;1744721;80;21137;-80
2021/04/20 05:09:22;;;;;;;27.82;19.85;;;;;;;4.96;83.54;96282.16;1748462;80;21264;-80
2021/04/20 05:11:50;;;;;;;26.27;19.30;;;;;;;5.00;83.57;96277.84;1749480;80;21133;-80
2021/04/20 05:14:18;;;;;;;27.77;20.23;;;;;;;5.06;83.65;96281.12;1755137;80;21133;-78
2021/04/20 05:16:47;;;;;;;25.97;18.35;;;;;;;5.16;83.80;96277.15;1760429;80;21091;-78
2021/04/20 05:19:16;;;;;;;25.00;18.25;;;;;;;5.32;83.91;96281.12;1751612;80;21359;-79
2021/04/20 05:21:42;;;;;;;25.92;18.00;;;;;;;5.43;83.61;96280.07;1730665;80;21086;-79
2021/04/20 05:24:08;;;;;;;21.73;17.17;;;;;;;5.49;83.46;96279.93;1748882;80;21083;-79
2021/04/20 05:26:36;;;;;;;25.40;17.95;;;;;;;5.55;83.58;96276.77;1748643;80;21118;-79
2021/04/20 05:29:08;;;;;;;26.52;18.00;;;;;;;5.63;83.52;96276.80;1743902;80;21114;-80
2021/04/20 05:31:34;;;;;;;24.90;18.00;;;;;;;5.69;83.37;96277.45;1742251;80;21075;-80
2021/04/20 05:34:04;;;;;;;24.67;16.55;;;;;;;5.75;83.27;96276.86;1731008;80;21941;-80
2021/04/20 05:36:30;;;;;;;24.60;18.12;;;;;;;5.87;83.48;96287.23;1732686;80;21357;-80
2021/04/20 05:38:58;;;;;;;24.10;17.95;;;;;;;5.99;83.25;96282.14;1742610;80;21097;-80
2021/04/20 05:41:29;;;;;;;23.18;17.12;;;;;;;6.05;83.12;96282.50;1737112;80;21242;-77
2021/04/20 05:43:56;;;;;;;25.17;18.75;;;;;;;6.12;83.69;96284.28;1738879;80;21117;-77
2021/04/20 05:46:24;;;;;;;24.75;16.35;;;;;;;6.23;83.61;96281.42;1727192;80;21252;-77
2021/04/20 05:48:51;;;;;;;23.38;17.48;;;;;;;6.37;83.46;96285.66;1726939;80;21225;-77
2021/04/20 05:51:19;;;;;;;26.87;19.62;;;;;;;6.50;83.23;96285.98;1724937;80;21099;-77
2021/04/20 05:53:46;;;;;;;27.65;21.48;;;;;;;6.65;83.35;96287.47;1724279;80;21113;-77
2021/04/20 05:56:14;;;;;;;30.80;24.02;;;;;;;6.76;83.17;96287.98;1733919;80;21530;-77
2021/04/20 05:58:45;;;;;;;26.60;19.60;;;;;;;6.82;83.08;96283.94;1680130;84;21133;-78
2021/04/20 06:01:13;;;;;;;27.80;21.62;;;;;;;6.83;83.13;96272.18;1719803;82;21093;-77
2021/04/20 06:03:40;;;;;;;30.35;22.55;;;;;;;6.98;83.12;96282.66;1721759;80;21239;-77
2021/04/20 06:06:06;;;;;;;33.15;25.25;;;;;;;7.09;83.08;96275.88;1720936;82;21091;-80
2021/04/20 06:08:36;;;;;;;30.27;22.50;;;;;;;7.24;83.06;96283.78;1752005;80;21329;-78
2021/04/20 06:11:08;;;;;;;30.15;24.30;;;;;;;7.28;82.72;96282.96;1749649;80;21329;-77
2021/04/20 06:13:40;;;;;;;35.33;28.57;;;;;;;7.35;82.87;96283.94;1738305;80;21114;-78
2021/04/20 06:16:06;;;;;;;29.05;23.73;;;;;;;7.44;82.93;96284.23;1738322;80;21118;-77
2021/04/20 06:18:32;;;;;;;40.55;28.77;;;;;;;7.46;82.71;96290.84;1751457;80;21098;-81
2021/04/20 06:21:01;;;;;;;30.52;24.05;;;;;;;7.51;82.45;96289.89;1746978;80;21157;-77
2021/04/20 06:23:28;;;;;;;32.78;26.07;;;;;;;7.53;82.12;96298.28;1730351;82;21308;-77
2021/04/20 06:26:02;;;;;;;38.35;30.57;;;;;;;7.58;82.16;96296.98;1737689;82;21079;-77
2021/04/20 06:28:29;;;;;;;41.00;32.58;;;;;;;7.63;82.07;96294.20;1744349;80;21256;-78
2021/04/20 06:31:01;;;;;;;40.48;31.00;;;;;;;7.69;82.15;96291.47;1735611;80;21130;-79
2021/04/20 06:33:31;;;;;;;40.33;27.90;;;;;;;7.76;82.03;96293.70;1739498;80;21142;-77
2021/04/20 06:35:57;;;;;;;32.55;25.35;;;;;;;7.82;81.98;96296.44;1736382;80;21079;-77
2021/04/20 06:38:23;;;;;;;36.35;28.02;;;;;;;7.94;81.77;96296.87;1728173;80;21138;-78
2021/04/20 06:40:52;;;;;;;35.00;27.93;;;;;;;8.01;81.59;96293.95;1727204;81;21146;-77
2021/04/20 06:43:29;;;;;;;41.70;32.33;;;;;;;8.01;81.27;96291.85;1715751;81;21236;-78
2021/04/20 06:46:03;;;;;;;44.48;34.30;;;;;;;8.00;81.60;96298.00;1728308;81;21130;-78
2021/04/20 06:48:48;;;;;;;81.02;72.47;;;;;;;8.04;81.86;96294.91;1736948;81;21103;-77
2021/04/20 06:51:22;;;;;;;42.90;30.65;;;;;;;8.09;81.76;96303.45;1729289;81;21320;-77
2021/04/20 06:54:23;;;;;;;44.42;33.40;;;;;;;8.07;81.15;96298.93;1759924;79;22949;-79
2021/04/20 06:57:09;;;;;;;44.95;32.80;;;;;;;7.99;81.08;96311.92;1738864;82;21075;-79
2021/04/20 06:59:44;;;;;;;55.40;37.90;;;;;;;7.93;81.15;96311.27;1735330;80;21126;-77
2021/04/20 07:02:46;;;;;;;61.28;43.28;;;;;;;7.90;81.45;96311.61;1716822;80;21114;-79
2021/04/20 07:05:17;;;;;;;60.73;41.13;;;;;;;7.93;81.72;96311.27;1750432;80;21075;-76
2021/04/20 07:08:12;;;;;;;61.18;43.95;;;;;;;7.90;81.36;96316.30;1743824;80;21962;-79
2021/04/20 07:10:39;;;;;;;63.48;43.50;;;;;;;7.91;81.54;96319.20;1739682;80;21098;-77
2021/04/20 07:13:07;;;;;;;64.72;45.00;;;;;;;8.05;81.46;96317.22;1703684;80;21212;-77
2021/04/20 07:15:34;;;;;;;67.42;47.17;;;;;;;8.13;81.46;96309.44;1728484;80;21131;-79
2021/04/20 07:18:18;;;;;;;59.50;43.55;;;;;;;8.20;81.43;96306.97;1746258;80;21297;-78
2021/04/20 07:21:31;;;;;;;64.67;44.63;;;;;;;8.21;81.48;96306.48;1746197;80;21137;-76
2021/04/20 07:24:14;;;;;;;55.98;38.60;;;;;;;8.21;81.56;96306.48;1724985;80;21118;-78
2021/04/20 07:27:19;;;;;;;58.38;41.55;;;;;;;8.21;81.17;96305.19;1725146;80;21426;-77
2021/04/20 07:30:11;;;;;;;63.92;43.98;;;;;;;8.20;81.19;96303.09;1756771;80;21333;-79
2021/04/20 07:32:48;;;;;;;63.83;41.90;;;;;;;8.29;81.36;96310.31;1743566;80;21333;-77
2021/04/20 07:35:25;;;;;;;61.33;40.90;;;;;;;8.30;81.27;96310.17;1729430;80;21126;-79
2021/04/20 07:38:49;;;;;;;57.48;39.00;;;;;;;8.36;81.58;96305.63;1741455;80;21224;-79
2021/04/20 07:41:42;;;;;;;57.43;38.55;;;;;;;8.42;81.40;96309.31;1727819;80;21238;-79
2021/04/20 07:44:26;;;;;;;57.70;39.48;;;;;;;8.60;81.10;96303.87;1734121;80;21130;-79
2021/04/20 07:46:56;;;;;;;57.62;40.00;;;;;;;8.86;80.92;96306.16;1734267;80;21098;-77
2021/04/20 07:50:02;;;;;;;52.10;35.48;;;;;;;8.97;80.68;96306.56;1703776;82;21110;-79
2021/04/20 07:52:58;;;;;;;54.70;38.90;;;;;;;9.11;80.42;96302.41;1728748;81;21131;-79
2021/04/20 07:55:29;;;;;;;57.10;36.70;;;;;;;9.23;80.29;96300.19;1729632;81;21110;-79
2021/04/20 07:57:58;;;;;;;47.80;31.07;;;;;;;9.32;80.02;96304.34;1718566;81;21158;-77
2021/04/20 08:00:36;;;;;;;48.58;35.25;;;;;;;9.27;79.13;96307.47;1715756;81;21233;-76
2021/04/20 08:03:21;;;;;;;56.30;37.88;;;;;;;9.13;78.87;96309.52;1720960;81;21249;-77
2021/04/20 08:06:12;;;;;;;58.05;39.55;;;;;;;9.18;79.25;96303.80;1725540;81;21150;-77
2021/04/20 08:08:51;;;;;;;55.05;39.13;;;;;;;9.27;79.53;96304.03;1707321;81;21416;-80
2021/04/20 08:11:28;;;;;;;58.38;38.30;;;;;;;9.35;79.36;96307.06;1732466;81;21091;-77
2021/04/20 08:14:13;;;;;;;50.40;36.03;;;;;;;9.39;78.93;96310.91;1708455;81;21265;-83
2021/04/20 08:17:06;;;;;;;53.65;36.53;;;;;;;9.45;78.85;96308.44;1711181;81;21284;-77
2021/04/20 08:19:38;;;;;;;53.23;36.60;;;;;;;9.52;78.56;96302.05;1728903;81;21299;-80
2021/04/20 08:22:05;;;;;;;47.85;30.37;;;;;;;9.52;78.17;96304.15;1736171;81;21132;-77
2021/04/20 08:24:50;;;;;;;57.10;41.48;;;;;;;9.61;78.94;96296.61;1723587;81;21202;-80
2021/04/20 08:27:30;;;;;;;57.33;40.98;;;;;;;9.91;78.51;96297.90;1734307;81;21096;-81
2021/04/20 08:30:01;;;;;;;44.85;33.85;;;;;;;10.07;78.21;96293.82;1714263;81;21309;-80
2021/04/20 08:32:27;;;;;;;51.80;36.73;;;;;;;10.17;77.72;96291.77;1713350;81;21099;-80
2021/04/20 08:35:16;;;;;;;44.23;32.45;;;;;;;10.32;76.70;96294.87;1732155;81;21099;-80
2021/04/20 08:38:24;;;;;;;49.48;35.88;;;;;;;10.39;76.14;96290.05;1722184;81;21135;-79
2021/04/20 08:41:30;;;;;;;50.43;35.13;;;;;;;10.57;76.99;96292.73;1728954;81;21297;-77
2021/04/20 08:44:33;;;;;;;51.63;36.60;;;;;;;10.82;76.71;96290.11;1726200;81;21071;-77
2021/04/20 08:47:15;;;;;;;46.40;35.70;;;;;;;10.91;75.64;96288.21;1721562;81;21091;-79
2021/04/20 08:50:15;;;;;;;;;;;;;;;10.86;75.60;96291.84;1734563;81;21412;-78
2021/04/20 08:52:49;;;;;;;49.18;32.23;;;;;;;10.87;75.62;96296.05;1725004;81;20385;-80
2021/04/20 08:55:46;;;;;;;37.15;25.05;;;;;;;10.82;74.64;96289.62;1718748;82;21134;-79
2021/04/20 08:58:45;;;;;;;48.68;33.02;;;;;;;10.77;74.18;96291.98;1727033;82;21289;-79
2021/04/20 09:01:38;;;;;;;47.43;31.57;;;;;;;10.79;74.78;96291.78;1734692;81;21103;-77
2021/04/20 09:04:43;;;;;;;55.25;37.38;;;;;;;10.90;74.63;96288.70;1717532;81;21075;-79
2021/04/20 09:07:35;;;;;;;69.17;44.23;;;;;;;11.05;74.83;96289.42;1727136;81;21060;-78
2021/04/20 09:10:16;;;;;;;61.35;37.30;;;;;;;11.21;74.34;96287.55;1727243;81;21233;-79
2021/04/20 09:12:47;;;;;;;63.20;38.30;;;;;;;11.31;74.57;96284.95;1664968;84;21277;-80
2021/04/20 09:15:19;;;;;;;75.12;45.85;;;;;;;11.31;73.37;96285.45;1724890;81;21067;-79
2021/04/20 09:17:49;;;;;;;64.87;40.78;;;;;;;10.96;73.17;96288.45;1722558;81;21151;-79
2021/04/20 09:20:24;;;;;;;67.95;42.35;;;;;;;10.84;73.64;96285.53;1755696;81;21142;-78
2021/04/20 09:23:00;;;;;;;75.20;44.88;;;;;;;11.01;74.73;96285.59;1738433;81;21571;-77
2021/04/20 09:25:35;;;;;;;68.07;41.65;;;;;;;11.09;74.65;96284.17;1736492;81;21118;-77
2021/04/20 09:28:15;;;;;;;70.00;45.80;;;;;;;11.20;75.08;96282.84;1742940;81;21122;-79
2021/04/20 09:30:50;;;;;;;66.82;41.33;;;;;;;11.24;73.82;96271.09;1667560;84;21276;-79
2021/04/20 09:33:21;;;;;;;65.97;41.05;;;;;;;11.22;73.06;96274.36;1677184;84;21145;-79
2021/04/20 09:35:48;;;;;;;55.97;38.07;;;;;;;11.22;73.47;96270.95;1683455;83;21301;-79
2021/04/20 09:38:14;;;;;;;52.50;34.70;;;;;;;11.31;73.56;96274.55;1686056;83;21286;-80
2021/04/20 09:40:40;;;;;;;83.05;44.93;;;;;;;11.43;72.80;96276.14;1687188;83;21119;-79
2021/04/20 09:43:30;;;;;;;53.45;32.67;;;;;;;11.51;73.98;96272.58;1663426;83;21249;-79
2021/04/20 09:46:17;;;;;;;48.08;33.18;;;;;;;11.65;72.92;96272.48;1690468;83;21154;-79
2021/04/20 09:49:00;;;;;;;37.73;25.25;;;;;;;11.73;72.17;96279.34;1705985;83;21134;-79
2021/04/20 09:51:31;;;;;;;45.23;29.50;;;;;;;11.84;70.25;96268.41;1721038;81;21229;-79
2021/04/20 09:54:24;;;;;;;44.27;30.12;;;;;;;11.84;70.65;96271.51;1721018;81;21106;-79
2021/04/20 09:57:01;;;;;;;;;;;;;;;11.89;71.68;96271.27;1729657;81;21079;-79
2021/04/20 09:59:57;;;;;;;40.08;28.30;;;;;;;12.00;70.39;96269.89;1728652;81;20151;-77
2021/04/20 10:03:00;;;;;;;37.85;26.12;;;;;;;12.01;70.54;96267.09;1682078;84;21269;-77
2021/04/20 10:06:13;;;;;;;38.53;28.80;;;;;;;12.02;69.87;96270.50;1677871;83;21138;-77
2021/04/20 10:08:51;;;;;;;;;;;;;;;12.01;70.57;96265.79;1689938;83;21104;-79
2021/04/20 10:12:09;;;;;;;38.23;26.90;;;;;;;12.16;70.05;96260.45;1689347;83;20235;-79
2021/04/20 10:15:16;;;;;;;31.25;21.57;;;;;;;12.28;69.94;96259.41;1727815;81;21118;-79
2021/04/20 10:18:22;;;;;;;25.95;18.27;;;;;;;12.53;69.41;96255.79;1661639;84;21133;-79
2021/04/20 10:21:16;;;;;;;36.48;24.85;;;;;;;12.77;68.56;96253.92;1686934;84;21150;-79
2021/04/20 10:24:14;;;;;;;25.10;17.05;;;;;;;12.96;68.66;96256.25;1691435;83;21142;-79
2021/04/20 10:27:13;;;;;;;32.10;23.87;;;;;;;13.05;67.26;96262.89;1695064;84;21114;-77
2021/04/20 10:30:04;;;;;;;35.75;25.60;;;;;;;13.01;68.09;96255.64;1682388;83;21708;-78
2021/04/20 10:32:44;;;;;;;38.35;27.50;;;;;;;12.92;66.52;96254.55;1686572;83;21353;-79
2021/04/20 10:35:16;;;;;;;32.65;24.23;;;;;;;12.76;67.95;96257.53;1695868;83;21499;-77
2021/04/20 10:37:49;;;;;;;25.88;18.73;;;;;;;12.67;64.95;96252.19;1691212;84;21127;-76
2021/04/20 10:40:20;;;;;;;23.75;17.73;;;;;;;12.47;65.87;96251.34;1683685;83;21261;-77
2021/04/20 10:45:24;;;;;;;23.30;16.23;;;;;;;12.69;64.38;96240.25;1792825;79;22718;-77
2021/04/20 10:47:53;;;;;;;21.75;15.43;;;;;;;12.78;65.74;96241.69;1744262;80;21130;-77
2021/04/20 10:50:23;;;;;;;31.87;20.85;;;;;;;12.88;63.12;96240.30;1736403;80;21270;-77
2021/04/20 10:53:13;;;;;;;23.98;18.20;;;;;;;12.79;64.01;96247.20;1733826;82;21109;-77
2021/04/20 10:55:44;;;;;;;17.32;12.60;;;;;;;12.60;63.63;96241.76;1746303;80;21114;-77
2021/04/20 10:58:10;;;;;;;16.10;12.03;;;;;;;12.55;61.62;96245.46;1731487;80;21309;-77
2021/04/20 11:00:36;;;;;;;18.48;14.33;;;;;;;12.38;62.57;96236.40;1726776;80;21348;-77
2021/04/20 11:03:02;;;;;;;24.55;17.82;;;;;;;12.26;62.95;96235.35;1700978;82;21110;-77
2021/04/20 11:05:30;;;;;;;23.38;17.30;;;;;;;12.39;64.00;96232.80;1736280;80;21317;-77
2021/04/20 11:07:57;;;;;;;35.68;22.42;;;;;;;12.62;65.21;96223.31;1742851;80;21134;-77
2021/04/20 11:10:27;;;;;;;22.50;15.88;;;;;;;12.83;64.35;96219.22;1748380;80;21109;-77
2021/04/20 11:12:51;;;;;;;15.93;11.38;;;;;;;12.84;63.31;96221.33;1737921;80;21121;-77
2021/04/20 11:15:28;;;;;;;16.70;11.38;;;;;;;12.67;60.52;96225.31;1715036;80;21095;-77
2021/04/20 11:18:08;;;;;;;14.80;9.30;;;;;;;12.53;61.91;96225.31;1725759;80;21212;-77
2021/04/20 11:20:43;;;;;;;16.80;11.97;;;;;;;12.68;61.14;96223.81;1727504;80;21129;-79
2021/04/20 11:23:17;;;;;;;12.65;9.25;;;;;;;12.92;60.59;96212.02;1744977;80;21098;-76
2021/04/20 11:26:06;;;;;;;14.90;11.38;;;;;;;13.07;60.76;96215.73;1748117;80;21126;-77
2021/04/20 11:28:46;;;;;;;15.98;10.88;;;;;;;13.00;60.30;96217.52;1754271;80;21138;-77
2021/04/20 11:31:34;;;;;;;15.18;11.12;;;;;;;12.89;59.79;96217.64;1730521;80;21134;-77
2021/04/20 11:34:21;;;;;;;16.17;10.78;;;;;;;12.84;59.42;96218.72;1712085;82;21059;-76
2021/04/20 11:37:06;;;;;;;17.52;12.03;;;;;;;12.62;58.01;96216.80;1731827;80;21126;-78
2021/04/20 11:39:52;;;;;;;18.25;12.53;;;;;;;12.59;58.27;96208.88;1743775;80;21137;-77
2021/04/20 11:42:41;;;;;;;15.80;10.03;;;;;;;12.78;58.72;96215.11;1715154;82;21106;-77
2021/04/20 11:45:22;;;;;;;13.28;10.20;;;;;;;12.90;57.76;96216.63;1732629;80;21099;-77
2021/04/20 11:48:01;;;;;;;13.60;9.43;;;;;;;12.88;58.26;96207.71;1731875;81;21126;-78
2021/04/20 11:50:30;;;;;;;13.20;10.40;;;;;;;12.83;59.08;96214.00;1738241;81;21123;-78
2021/04/20 11:53:00;;;;;;;16.00;11.53;;;;;;;12.86;58.96;96214.94;1727082;81;21436;-78
2021/04/20 11:55:31;;;;;;;17.40;12.58;;;;;;;12.78;58.67;96214.31;1726765;82;21095;-77
2021/04/20 11:58:05;;;;;;;18.75;12.68;;;;;;;12.70;59.27;96208.80;1739151;81;21102;-77